createdAt,value
2022-10-01T00:00:01.509Z,0.00
2022-10-01T00:01:01.499Z,0.00
2022-10-01T00:02:01.534Z,0.00
2022-10-01T00:03:01.566Z,0.00
2022-10-01T00:04:01.478Z,0.00
2022-10-01T00:05:01.473Z,0.00
2022-10-01T00:06:01.452Z,0.00
2022-10-01T00:07:01.433Z,0.00
2022-10-01T00:08:01.418Z,0.00
2022-10-01T00:09:01.420Z,0.00
2022-10-01T00:10:01.427Z,0.00
2022-10-01T00:11:01.383Z,0.00
2022-10-01T00:12:01.373Z,0.00
2022-10-01T00:13:01.366Z,0.00
2022-10-01T00:14:01.363Z,0.00
2022-10-01T00:15:05.757Z,0.00
2022-10-01T00:16:01.330Z,0.00
2022-10-01T00:17:01.419Z,0.00
2022-10-01T00:18:01.310Z,0.00
2022-10-01T00:19:01.330Z,0.00
2022-10-01T00:20:01.317Z,0.00
2022-10-01T00:21:01.319Z,0.00
2022-10-01T00:22:01.285Z,0.00
2022-10-01T00:23:01.260Z,0.00
2022-10-01T00:24:01.252Z,0.00
2022-10-01T00:25:01.232Z,0.00
2022-10-01T00:26:01.231Z,0.00
2022-10-01T00:27:01.247Z,0.00
2022-10-01T00:28:01.300Z,0.00
2022-10-01T00:29:01.228Z,0.00
2022-10-01T00:30:01.185Z,0.00
2022-10-01T00:31:01.215Z,0.00
2022-10-01T00:32:01.240Z,0.00
2022-10-01T00:33:01.147Z,0.00
2022-10-01T00:34:01.143Z,0.00
2022-10-01T00:35:01.155Z,0.00
2022-10-01T00:36:01.138Z,0.00
2022-10-01T00:37:01.109Z,0.00
2022-10-01T00:38:01.103Z,0.00
2022-10-01T00:39:01.123Z,0.00
2022-10-01T00:40:01.077Z,0.00
2022-10-01T00:41:01.096Z,0.00
2022-10-01T00:42:01.076Z,0.00
2022-10-01T00:43:01.052Z,0.00
2022-10-01T00:44:01.027Z,0.00
2022-10-01T00:45:01.020Z,0.00
2022-10-01T00:46:01.054Z,0.00
2022-10-01T00:47:01.026Z,0.00
2022-10-01T00:48:01.025Z,0.00
2022-10-01T00:49:00.984Z,0.00
2022-10-01T00:50:00.970Z,0.00
2022-10-01T00:51:00.958Z,0.00
2022-10-01T00:52:00.968Z,0.00
2022-10-01T00:53:00.937Z,0.00
2022-10-01T00:54:00.946Z,0.00
2022-10-01T00:55:00.915Z,0.00
2022-10-01T00:56:00.899Z,0.00
2022-10-01T00:57:00.896Z,0.00
2022-10-01T00:58:00.919Z,0.00
2022-10-01T00:59:00.868Z,0.00
2022-10-01T01:00:00.859Z,0.00
2022-10-01T01:01:00.884Z,0.00
2022-10-01T01:02:00.893Z,0.00
2022-10-01T01:03:00.831Z,0.00
2022-10-01T01:04:00.848Z,0.00
2022-10-01T01:05:00.810Z,0.00
2022-10-01T01:06:00.803Z,0.00
2022-10-01T01:07:00.789Z,0.00
2022-10-01T01:08:00.801Z,0.00
2022-10-01T01:09:00.760Z,0.00
2022-10-01T01:10:00.775Z,0.00
2022-10-01T01:11:00.749Z,0.00
2022-10-01T01:12:00.736Z,0.00
2022-10-01T01:13:00.717Z,0.00
2022-10-01T01:14:00.705Z,0.00
2022-10-01T01:15:00.732Z,0.00
2022-10-01T01:16:00.768Z,0.00
2022-10-01T01:17:00.673Z,0.00
2022-10-01T01:18:00.664Z,0.00
2022-10-01T01:19:00.654Z,0.00
2022-10-01T01:20:00.686Z,0.00
2022-10-01T01:21:00.636Z,0.00
2022-10-01T01:22:00.645Z,0.00
2022-10-01T01:23:00.608Z,0.00
2022-10-01T01:24:00.625Z,0.00
2022-10-01T01:25:00.588Z,0.00
2022-10-01T01:26:00.608Z,0.00
2022-10-01T01:27:00.570Z,0.00
2022-10-01T01:28:00.620Z,0.00
2022-10-01T01:29:00.547Z,0.00
2022-10-01T01:30:00.601Z,0.00
2022-10-01T01:31:00.567Z,0.00
2022-10-01T01:32:00.513Z,0.00
2022-10-01T01:33:00.505Z,0.00
2022-10-01T01:34:00.493Z,0.00
2022-10-01T01:35:00.490Z,0.00
2022-10-01T01:36:00.494Z,0.00
2022-10-01T01:37:00.460Z,0.00
2022-10-01T01:38:00.446Z,0.00
2022-10-01T01:39:00.452Z,0.00
2022-10-01T01:40:00.572Z,0.00
2022-10-01T01:41:00.423Z,0.00
2022-10-01T01:42:00.437Z,0.00
2022-10-01T01:43:00.403Z,0.00
2022-10-01T01:44:00.381Z,0.00
2022-10-01T01:45:00.378Z,0.00
2022-10-01T01:46:00.435Z,0.00
2022-10-01T01:47:00.370Z,0.00
2022-10-01T01:48:00.386Z,0.00
2022-10-01T01:49:00.359Z,0.00
2022-10-01T01:50:00.323Z,0.00
2022-10-01T01:51:00.350Z,0.00
2022-10-01T01:52:00.314Z,0.00
2022-10-01T01:53:00.342Z,0.00
2022-10-01T01:54:00.283Z,0.00
2022-10-01T01:55:00.303Z,0.00
2022-10-01T01:56:00.296Z,0.00
2022-10-01T01:57:00.242Z,0.00
2022-10-01T01:58:00.239Z,0.00
2022-10-01T01:59:00.247Z,0.00
2022-10-01T02:00:00.210Z,0.00
2022-10-01T02:01:00.237Z,0.00
2022-10-01T02:02:00.428Z,0.00
2022-10-01T02:03:00.281Z,0.00
2022-10-01T02:04:00.176Z,0.00
2022-10-01T02:05:00.155Z,0.00
2022-10-01T02:06:00.174Z,0.00
2022-10-01T02:07:00.133Z,0.00
2022-10-01T02:08:00.137Z,0.00
2022-10-01T02:09:00.140Z,0.00
2022-10-01T02:10:00.135Z,0.00
2022-10-01T02:11:00.091Z,0.00
2022-10-01T02:12:00.137Z,0.00
2022-10-01T02:13:00.086Z,0.00
2022-10-01T02:14:00.064Z,0.00
2022-10-01T02:15:00.091Z,0.00
2022-10-01T02:16:00.108Z,0.00
2022-10-01T02:17:00.053Z,0.00
2022-10-01T02:18:00.057Z,0.00
2022-10-01T02:19:00.012Z,0.00
2022-10-01T02:20:00.036Z,0.00
2022-10-01T02:20:59.990Z,0.00
2022-10-01T02:21:59.983Z,0.00
2022-10-01T02:22:59.961Z,0.00
2022-10-01T02:23:59.952Z,0.00
2022-10-01T02:24:59.948Z,0.00
2022-10-01T02:25:59.964Z,0.00
2022-10-01T02:26:59.943Z,0.00
2022-10-01T02:28:00.015Z,0.00
2022-10-01T02:28:59.906Z,0.00
2022-10-01T02:29:59.918Z,0.00
2022-10-01T02:30:59.953Z,0.00
2022-10-01T02:31:59.864Z,0.00
2022-10-01T02:32:59.891Z,0.00
2022-10-01T02:33:59.849Z,0.00
2022-10-01T02:34:59.841Z,0.00
2022-10-01T02:35:59.822Z,0.00
2022-10-01T02:36:59.833Z,0.00
2022-10-01T02:37:59.805Z,0.00
2022-10-01T02:38:59.795Z,0.00
2022-10-01T02:39:59.786Z,0.00
2022-10-01T02:40:59.775Z,0.00
2022-10-01T02:41:59.802Z,0.00
2022-10-01T02:42:59.755Z,0.00
2022-10-01T02:43:59.758Z,0.00
2022-10-01T02:44:59.722Z,0.00
2022-10-01T02:45:59.847Z,0.00
2022-10-01T02:46:59.709Z,0.00
2022-10-01T02:47:59.697Z,0.00
2022-10-01T02:48:59.679Z,0.00
2022-10-01T02:49:59.677Z,0.00
2022-10-01T02:50:59.659Z,0.00
2022-10-01T02:51:59.688Z,0.00
2022-10-01T02:52:59.639Z,0.00
2022-10-01T02:53:59.624Z,0.00
2022-10-01T02:54:59.612Z,0.00
2022-10-01T02:55:59.626Z,0.00
2022-10-01T02:56:59.603Z,0.00
2022-10-01T02:57:59.613Z,0.00
2022-10-01T02:58:59.570Z,0.00
2022-10-01T02:59:59.581Z,0.00
2022-10-01T03:00:59.561Z,0.00
2022-10-01T03:01:59.721Z,0.00
2022-10-01T03:02:59.687Z,0.00
2022-10-01T03:03:59.541Z,0.00
2022-10-01T03:04:59.510Z,0.00
2022-10-01T03:05:59.499Z,0.00
2022-10-01T03:06:59.484Z,0.00
2022-10-01T03:07:59.481Z,0.00
2022-10-01T03:08:59.492Z,0.00
2022-10-01T03:09:59.445Z,0.00
2022-10-01T03:10:59.444Z,0.00
2022-10-01T03:11:59.434Z,0.00
2022-10-01T03:12:59.426Z,0.00
2022-10-01T03:13:59.460Z,0.00
2022-10-01T03:14:59.433Z,0.00
2022-10-01T03:15:59.497Z,0.00
2022-10-01T03:16:59.380Z,0.00
2022-10-01T03:17:59.383Z,0.00
2022-10-01T03:18:59.358Z,0.00
2022-10-01T03:19:59.398Z,0.00
2022-10-01T03:20:59.336Z,0.00
2022-10-01T03:21:59.327Z,0.00
2022-10-01T03:22:59.321Z,0.00
2022-10-01T03:23:59.295Z,0.00
2022-10-01T03:24:59.318Z,0.00
2022-10-01T03:25:59.269Z,0.00
2022-10-01T03:26:59.274Z,0.00
2022-10-01T03:27:59.291Z,0.00
2022-10-01T03:28:59.276Z,0.00
2022-10-01T03:29:59.269Z,0.00
2022-10-01T03:30:59.271Z,0.00
2022-10-01T03:31:59.227Z,0.00
2022-10-01T03:32:59.208Z,0.00
2022-10-01T03:33:59.189Z,0.00
2022-10-01T03:34:59.211Z,0.00
2022-10-01T03:35:59.169Z,0.00
2022-10-01T03:36:59.177Z,0.00
2022-10-01T03:37:59.199Z,0.00
2022-10-01T03:38:59.136Z,0.00
2022-10-01T03:39:59.160Z,0.00
2022-10-01T03:40:59.116Z,0.00
2022-10-01T03:41:59.109Z,0.00
2022-10-01T03:42:59.097Z,0.00
2022-10-01T03:44:01.713Z,0.00
2022-10-01T03:44:59.077Z,0.00
2022-10-01T03:45:59.147Z,0.00
2022-10-01T03:46:59.055Z,0.00
2022-10-01T03:47:59.070Z,0.00
2022-10-01T03:48:59.027Z,0.00
2022-10-01T03:49:59.014Z,0.00
2022-10-01T03:50:59.037Z,0.00
2022-10-01T03:51:59.001Z,0.00
2022-10-01T03:52:58.990Z,0.00
2022-10-01T03:53:58.976Z,0.00
2022-10-01T03:54:58.962Z,0.00
2022-10-01T03:55:58.973Z,0.00
2022-10-01T03:56:58.937Z,0.00
2022-10-01T03:57:58.933Z,0.00
2022-10-01T03:58:58.950Z,0.00
2022-10-01T03:59:58.906Z,0.00
2022-10-01T04:00:58.901Z,0.00
2022-10-01T04:01:59.038Z,0.00
2022-10-01T04:02:58.922Z,0.00
2022-10-01T04:03:58.929Z,0.00
2022-10-01T04:04:58.881Z,0.00
2022-10-01T04:05:58.861Z,0.00
2022-10-01T04:06:58.838Z,0.00
2022-10-01T04:07:58.829Z,0.00
2022-10-01T04:08:58.811Z,0.00
2022-10-01T04:09:58.835Z,0.00
2022-10-01T04:10:58.798Z,0.00
2022-10-01T04:11:58.779Z,0.00
2022-10-01T04:12:58.772Z,0.00
2022-10-01T04:13:58.786Z,0.00
2022-10-01T04:14:58.751Z,0.00
2022-10-01T04:15:58.830Z,0.00
2022-10-01T04:16:58.736Z,0.00
2022-10-01T04:17:58.723Z,0.00
2022-10-01T04:18:58.710Z,0.00
2022-10-01T04:19:58.755Z,0.00
2022-10-01T04:20:58.704Z,0.00
2022-10-01T04:21:58.710Z,0.00
2022-10-01T04:22:58.660Z,0.00
2022-10-01T04:23:58.656Z,0.00
2022-10-01T04:24:58.680Z,0.00
2022-10-01T04:25:58.636Z,0.00
2022-10-01T04:26:58.616Z,0.00
2022-10-01T04:27:58.635Z,0.00
2022-10-01T04:28:58.601Z,0.00
2022-10-01T04:29:58.578Z,0.00
2022-10-01T04:30:58.604Z,0.00
2022-10-01T04:31:58.646Z,0.00
2022-10-01T04:32:58.561Z,0.00
2022-10-01T04:33:58.572Z,0.00
2022-10-01T04:34:58.545Z,0.00
2022-10-01T04:35:58.571Z,0.00
2022-10-01T04:36:58.509Z,0.00
2022-10-01T04:37:58.496Z,0.00
2022-10-01T04:39:02.227Z,0.00
2022-10-01T04:39:58.488Z,4.00
2022-10-01T04:40:58.470Z,4.00
2022-10-01T04:41:58.462Z,0.00
2022-10-01T04:42:58.455Z,0.00
2022-10-01T04:43:58.454Z,4.00
2022-10-01T04:44:58.420Z,4.00
2022-10-01T04:45:58.406Z,0.00
2022-10-01T04:46:58.470Z,4.00
2022-10-01T04:47:58.389Z,8.00
2022-10-01T04:48:58.402Z,4.00
2022-10-01T04:49:58.375Z,4.00
2022-10-01T04:50:58.362Z,8.00
2022-10-01T04:51:58.392Z,8.00
2022-10-01T04:52:58.343Z,12.00
2022-10-01T04:53:58.338Z,12.00
2022-10-01T04:54:58.317Z,16.00
2022-10-01T04:55:58.308Z,16.00
2022-10-01T04:56:58.304Z,20.00
2022-10-01T04:57:58.292Z,28.00
2022-10-01T04:58:58.279Z,28.00
2022-10-01T04:59:58.275Z,32.00
2022-10-01T05:01:01.809Z,40.00
2022-10-01T05:01:58.271Z,44.00
2022-10-01T05:02:58.245Z,48.00
2022-10-01T05:03:59.194Z,56.00
2022-10-01T05:04:58.205Z,60.00
2022-10-01T05:05:58.199Z,60.00
2022-10-01T05:06:58.196Z,64.00
2022-10-01T05:07:58.194Z,64.00
2022-10-01T05:08:58.158Z,64.00
2022-10-01T05:09:58.154Z,68.00
2022-10-01T05:10:58.156Z,68.00
2022-10-01T05:11:58.130Z,68.00
2022-10-01T05:12:58.121Z,72.00
2022-10-01T05:13:58.112Z,72.00
2022-10-01T05:14:58.092Z,72.00
2022-10-01T05:15:58.181Z,80.00
2022-10-01T05:16:58.088Z,84.00
2022-10-01T05:17:58.068Z,92.00
2022-10-01T05:18:58.056Z,96.00
2022-10-01T05:19:58.052Z,100.00
2022-10-01T05:20:58.036Z,104.00
2022-10-01T05:21:58.030Z,116.00
2022-10-01T05:22:58.013Z,120.00
2022-10-01T05:23:58.011Z,128.00
2022-10-01T05:24:57.983Z,136.00
2022-10-01T05:25:57.995Z,144.00
2022-10-01T05:26:58.004Z,148.00
2022-10-01T05:27:58.026Z,160.00
2022-10-01T05:28:57.948Z,160.00
2022-10-01T05:29:57.938Z,168.00
2022-10-01T05:30:57.928Z,172.00
2022-10-01T05:31:57.948Z,180.00
2022-10-01T05:32:57.925Z,188.00
2022-10-01T05:33:57.887Z,196.00
2022-10-01T05:34:57.875Z,208.00
2022-10-01T05:35:57.885Z,220.00
2022-10-01T05:36:57.862Z,236.00
2022-10-01T05:37:57.853Z,248.00
2022-10-01T05:38:57.849Z,256.00
2022-10-01T05:39:57.841Z,264.00
2022-10-01T05:40:57.810Z,280.00
2022-10-01T05:41:57.804Z,292.00
2022-10-01T05:42:57.812Z,316.00
2022-10-01T05:43:57.778Z,356.00
2022-10-01T05:44:57.773Z,408.00
2022-10-01T05:45:57.792Z,484.00
2022-10-01T05:46:57.756Z,564.00
2022-10-01T05:47:57.741Z,636.00
2022-10-01T05:48:57.734Z,692.00
2022-10-01T05:49:57.720Z,748.00
2022-10-01T05:50:57.709Z,804.00
2022-10-01T05:51:57.696Z,860.00
2022-10-01T05:52:57.681Z,896.00
2022-10-01T05:53:57.680Z,912.00
2022-10-01T05:54:57.679Z,900.00
2022-10-01T05:55:57.663Z,872.00
2022-10-01T05:56:57.637Z,820.00
2022-10-01T05:57:57.633Z,760.00
2022-10-01T05:58:57.614Z,736.00
2022-10-01T05:59:57.616Z,756.00
2022-10-01T06:00:57.601Z,808.00
2022-10-01T06:01:57.773Z,860.00
2022-10-01T06:02:57.830Z,876.00
2022-10-01T06:03:57.570Z,868.00
2022-10-01T06:04:57.561Z,868.00
2022-10-01T06:05:57.561Z,968.00
2022-10-01T06:06:57.527Z,1020.00
2022-10-01T06:07:57.517Z,1040.00
2022-10-01T06:08:57.507Z,1084.00
2022-10-01T06:09:57.504Z,1144.00
2022-10-01T06:10:57.501Z,1208.00
2022-10-01T06:11:57.511Z,1264.00
2022-10-01T06:12:57.471Z,1328.00
2022-10-01T06:13:57.451Z,1412.00
2022-10-01T06:14:57.442Z,1504.00
2022-10-01T06:15:57.456Z,1532.00
2022-10-01T06:16:57.473Z,1456.00
2022-10-01T06:17:57.420Z,1332.00
2022-10-01T06:18:57.432Z,1304.00
2022-10-01T06:19:57.398Z,1332.00
2022-10-01T06:20:57.399Z,1400.00
2022-10-01T06:21:57.369Z,1444.00
2022-10-01T06:22:57.361Z,1500.00
2022-10-01T06:23:57.358Z,1560.00
2022-10-01T06:24:57.340Z,1564.00
2022-10-01T06:25:57.343Z,1492.00
2022-10-01T06:26:57.318Z,1392.00
2022-10-01T06:27:57.387Z,1284.00
2022-10-01T06:28:57.310Z,1220.00
2022-10-01T06:29:57.279Z,1204.00
2022-10-01T06:30:57.276Z,1216.00
2022-10-01T06:31:57.339Z,1216.00
2022-10-01T06:32:57.255Z,1208.00
2022-10-01T06:33:57.243Z,1208.00
2022-10-01T06:34:57.226Z,1216.00
2022-10-01T06:35:57.224Z,1220.00
2022-10-01T06:36:57.225Z,1200.00
2022-10-01T06:37:57.206Z,1180.00
2022-10-01T06:38:57.205Z,1172.00
2022-10-01T06:39:57.186Z,1168.00
2022-10-01T06:40:57.717Z,1172.00
2022-10-01T06:41:57.159Z,1196.00
2022-10-01T06:42:57.141Z,1232.00
2022-10-01T06:43:57.154Z,1284.00
2022-10-01T06:44:57.133Z,1320.00
2022-10-01T06:45:57.226Z,1332.00
2022-10-01T06:46:57.108Z,1328.00
2022-10-01T06:47:57.087Z,1308.00
2022-10-01T06:48:57.082Z,1276.00
2022-10-01T06:49:57.076Z,1244.00
2022-10-01T06:50:57.065Z,1212.00
2022-10-01T06:51:57.055Z,1184.00
2022-10-01T06:52:57.038Z,1168.00
2022-10-01T06:53:57.026Z,1192.00
2022-10-01T06:54:57.018Z,1224.00
2022-10-01T06:55:57.018Z,1220.00
2022-10-01T06:56:57.013Z,1200.00
2022-10-01T06:57:56.979Z,1172.00
2022-10-01T06:58:56.977Z,1128.00
2022-10-01T06:59:57.015Z,1096.00
2022-10-01T07:00:56.991Z,1064.00
2022-10-01T07:01:56.974Z,1048.00
2022-10-01T07:02:56.924Z,1028.00
2022-10-01T07:03:56.933Z,1008.00
2022-10-01T07:04:57.007Z,1016.00
2022-10-01T07:05:56.902Z,1016.00
2022-10-01T07:06:56.916Z,996.00
2022-10-01T07:07:56.874Z,960.00
2022-10-01T07:08:56.880Z,936.00
2022-10-01T07:09:56.855Z,928.00
2022-10-01T07:10:56.848Z,936.00
2022-10-01T07:11:56.841Z,972.00
2022-10-01T07:12:56.824Z,1032.00
2022-10-01T07:13:56.809Z,1084.00
2022-10-01T07:14:56.795Z,1132.00
2022-10-01T07:15:56.804Z,1144.00
2022-10-01T07:16:56.783Z,1128.00
2022-10-01T07:17:56.796Z,1080.00
2022-10-01T07:18:56.767Z,1024.00
2022-10-01T07:19:56.743Z,984.00
2022-10-01T07:20:56.735Z,984.00
2022-10-01T07:21:56.734Z,1016.00
2022-10-01T07:22:56.717Z,1052.00
2022-10-01T07:23:56.712Z,1100.00
2022-10-01T07:24:56.705Z,1136.00
2022-10-01T07:25:56.706Z,1172.00
2022-10-01T07:26:56.667Z,1208.00
2022-10-01T07:27:56.735Z,1244.00
2022-10-01T07:28:56.670Z,1292.00
2022-10-01T07:29:56.639Z,1344.00
2022-10-01T07:30:56.631Z,1388.00
2022-10-01T07:31:56.675Z,1420.00
2022-10-01T07:32:56.617Z,1456.00
2022-10-01T07:33:56.615Z,1496.00
2022-10-01T07:34:56.595Z,1552.00
2022-10-01T07:35:56.577Z,1640.00
2022-10-01T07:36:56.561Z,1736.00
2022-10-01T07:37:56.551Z,1808.00
2022-10-01T07:38:56.545Z,1880.00
2022-10-01T07:39:56.561Z,1936.00
2022-10-01T07:40:56.533Z,1984.00
2022-10-01T07:41:56.521Z,2076.00
2022-10-01T07:42:56.512Z,2232.00
2022-10-01T07:43:56.484Z,2424.00
2022-10-01T07:44:56.499Z,2604.00
2022-10-01T07:45:56.540Z,2816.00
2022-10-01T07:46:56.458Z,3012.00
2022-10-01T07:47:56.477Z,3136.00
2022-10-01T07:48:56.429Z,3164.00
2022-10-01T07:49:56.427Z,3124.00
2022-10-01T07:50:56.427Z,3060.00
2022-10-01T07:51:56.397Z,3004.00
2022-10-01T07:52:56.392Z,2992.00
2022-10-01T07:53:56.398Z,2968.00
2022-10-01T07:54:56.379Z,2952.00
2022-10-01T07:55:56.362Z,2864.00
2022-10-01T07:56:56.365Z,2696.00
2022-10-01T07:57:56.330Z,2556.00
2022-10-01T07:58:56.352Z,2460.00
2022-10-01T07:59:56.360Z,2420.00
2022-10-01T08:00:56.437Z,2404.00
2022-10-01T08:01:56.368Z,2376.00
2022-10-01T08:02:56.317Z,2332.00
2022-10-01T08:03:56.287Z,2316.00
2022-10-01T08:04:56.265Z,2356.00
2022-10-01T08:05:56.271Z,2404.00
2022-10-01T08:06:56.243Z,2452.00
2022-10-01T08:07:56.247Z,2476.00
2022-10-01T08:08:56.224Z,2504.00
2022-10-01T08:09:56.212Z,2560.00
2022-10-01T08:10:56.206Z,2672.00
2022-10-01T08:11:56.189Z,2768.00
2022-10-01T08:12:56.219Z,2796.00
2022-10-01T08:13:56.710Z,2780.00
2022-10-01T08:14:56.164Z,2724.00
2022-10-01T08:15:56.146Z,2668.00
2022-10-01T08:16:56.233Z,2624.00
2022-10-01T08:17:56.126Z,2608.00
2022-10-01T08:18:56.141Z,2576.00
2022-10-01T08:19:56.122Z,2560.00
2022-10-01T08:20:56.118Z,2528.00
2022-10-01T08:21:56.098Z,2500.00
2022-10-01T08:22:56.067Z,2512.00
2022-10-01T08:23:56.094Z,2500.00
2022-10-01T08:24:56.041Z,2432.00
2022-10-01T08:25:56.060Z,2340.00
2022-10-01T08:26:56.067Z,2212.00
2022-10-01T08:27:56.062Z,2132.00
2022-10-01T08:28:56.005Z,2068.00
2022-10-01T08:29:55.994Z,2044.00
2022-10-01T08:30:56.007Z,2080.00
2022-10-01T08:31:56.047Z,2100.00
2022-10-01T08:32:55.960Z,2128.00
2022-10-01T08:33:55.945Z,2080.00
2022-10-01T08:34:56.827Z,1780.00
2022-10-01T08:35:55.967Z,1508.00
2022-10-01T08:36:55.943Z,1312.00
2022-10-01T08:37:55.925Z,1236.00
2022-10-01T08:38:55.897Z,1140.00
2022-10-01T08:39:55.895Z,1520.00
2022-10-01T08:40:55.870Z,1828.00
2022-10-01T08:41:55.899Z,1656.00
2022-10-01T08:42:55.858Z,1848.00
2022-10-01T08:43:55.836Z,2244.00
2022-10-01T08:44:55.830Z,2424.00
2022-10-01T08:45:55.850Z,2124.00
2022-10-01T08:46:55.821Z,1748.00
2022-10-01T08:47:55.862Z,2160.00
2022-10-01T08:48:57.301Z,2556.00
2022-10-01T08:49:55.782Z,3320.00
2022-10-01T08:50:55.770Z,4440.00
2022-10-01T08:51:55.797Z,4528.00
2022-10-01T08:52:55.753Z,4580.00
2022-10-01T08:53:55.738Z,4500.00
2022-10-01T08:54:55.729Z,4380.00
2022-10-01T08:55:55.718Z,4128.00
2022-10-01T08:56:56.268Z,3984.00
2022-10-01T08:57:55.711Z,3600.00
2022-10-01T08:58:55.688Z,3392.00
2022-10-01T08:59:55.685Z,2908.00
2022-10-01T09:00:55.719Z,2708.00
2022-10-01T09:01:55.654Z,2800.00
2022-10-01T09:02:55.639Z,4084.00
2022-10-01T09:03:55.653Z,5668.00
2022-10-01T09:04:58.996Z,6020.00
2022-10-01T09:05:56.620Z,6084.00
2022-10-01T09:06:55.608Z,5496.00
2022-10-01T09:07:55.596Z,2996.00
2022-10-01T09:08:55.599Z,2432.00
2022-10-01T09:09:55.557Z,2704.00
2022-10-01T09:10:55.582Z,3484.00
2022-10-01T09:11:55.537Z,4036.00
2022-10-01T09:12:55.530Z,4244.00
2022-10-01T09:13:55.546Z,3928.00
2022-10-01T09:14:55.512Z,3604.00
2022-10-01T09:15:55.500Z,3252.00
2022-10-01T09:16:55.613Z,3088.00
2022-10-01T09:17:55.488Z,3308.00
2022-10-01T09:18:55.456Z,3932.00
2022-10-01T09:19:55.483Z,4432.00
2022-10-01T09:20:55.454Z,4964.00
2022-10-01T09:21:55.466Z,7792.00
2022-10-01T09:22:55.424Z,9092.00
2022-10-01T09:23:55.426Z,8140.00
2022-10-01T09:24:55.403Z,6924.00
2022-10-01T09:25:55.408Z,6372.00
2022-10-01T09:26:55.371Z,7036.00
2022-10-01T09:27:55.395Z,7884.00
2022-10-01T09:28:55.369Z,8272.00
2022-10-01T09:29:55.349Z,7240.00
2022-10-01T09:30:55.329Z,5916.00
2022-10-01T09:31:55.390Z,5012.00
2022-10-01T09:32:55.342Z,4736.00
2022-10-01T09:33:55.324Z,4720.00
2022-10-01T09:34:55.333Z,4400.00
2022-10-01T09:35:55.283Z,3940.00
2022-10-01T09:36:55.268Z,3532.00
2022-10-01T09:37:55.293Z,3540.00
2022-10-01T09:38:55.399Z,3824.00
2022-10-01T09:39:55.287Z,4132.00
2022-10-01T09:40:55.777Z,3876.00
2022-10-01T09:41:55.219Z,2744.00
2022-10-01T09:42:55.202Z,3520.00
2022-10-01T09:43:55.194Z,3796.00
2022-10-01T09:45:02.272Z,4052.00
2022-10-01T09:45:55.259Z,3696.00
2022-10-01T09:46:55.161Z,2832.00
2022-10-01T09:47:55.152Z,3048.00
2022-10-01T09:48:55.163Z,3524.00
2022-10-01T09:49:55.126Z,3468.00
2022-10-01T09:50:55.110Z,3324.00
2022-10-01T09:51:55.134Z,2704.00
2022-10-01T09:52:55.092Z,2112.00
2022-10-01T09:53:55.088Z,1972.00
2022-10-01T09:54:55.070Z,1852.00
2022-10-01T09:55:55.110Z,1856.00
2022-10-01T09:56:55.073Z,2028.00
2022-10-01T09:57:55.043Z,2124.00
2022-10-01T09:58:55.031Z,1536.00
2022-10-01T09:59:55.023Z,1308.00
2022-10-01T10:00:55.008Z,1428.00
2022-10-01T10:01:55.155Z,1388.00
2022-10-01T10:02:55.143Z,1456.00
2022-10-01T10:03:54.979Z,1708.00
2022-10-01T10:04:54.978Z,1344.00
2022-10-01T10:05:54.989Z,1612.00
2022-10-01T10:06:54.936Z,1452.00
2022-10-01T10:07:54.962Z,1380.00
2022-10-01T10:08:54.943Z,1908.00
2022-10-01T10:09:54.915Z,1152.00
2022-10-01T10:10:54.893Z,1468.00
2022-10-01T10:11:54.912Z,1508.00
2022-10-01T10:12:54.890Z,2096.00
2022-10-01T10:13:54.891Z,1992.00
2022-10-01T10:14:54.867Z,1420.00
2022-10-01T10:15:54.911Z,2012.00
2022-10-01T10:16:54.859Z,2248.00
2022-10-01T10:17:54.820Z,1800.00
2022-10-01T10:18:54.844Z,2084.00
2022-10-01T10:19:54.800Z,1428.00
2022-10-01T10:20:54.783Z,1924.00
2022-10-01T10:21:54.786Z,2360.00
2022-10-01T10:22:54.784Z,2972.00
2022-10-01T10:23:54.802Z,1764.00
2022-10-01T10:24:54.753Z,976.00
2022-10-01T10:25:54.746Z,1248.00
2022-10-01T10:26:54.736Z,1840.00
2022-10-01T10:27:54.784Z,1108.00
2022-10-01T10:28:54.702Z,1040.00
2022-10-01T10:29:54.728Z,1628.00
2022-10-01T10:30:54.691Z,1760.00
2022-10-01T10:31:54.708Z,2492.00
2022-10-01T10:32:54.669Z,2136.00
2022-10-01T10:33:54.679Z,2148.00
2022-10-01T10:34:57.114Z,2600.00
2022-10-01T10:35:55.626Z,1504.00
2022-10-01T10:36:54.620Z,2144.00
2022-10-01T10:37:54.609Z,1236.00
2022-10-01T10:38:54.603Z,900.00
2022-10-01T10:39:54.596Z,1480.00
2022-10-01T10:40:54.610Z,1644.00
2022-10-01T10:41:54.600Z,2160.00
2022-10-01T10:42:54.566Z,2032.00
2022-10-01T10:43:54.557Z,1892.00
2022-10-01T10:44:54.544Z,1988.00
2022-10-01T10:45:54.567Z,1804.00
2022-10-01T10:46:54.608Z,2228.00
2022-10-01T10:47:54.506Z,3064.00
2022-10-01T10:48:55.366Z,2748.00
2022-10-01T10:49:54.474Z,1556.00
2022-10-01T10:50:54.506Z,1336.00
2022-10-01T10:51:54.485Z,1132.00
2022-10-01T10:52:54.590Z,980.00
2022-10-01T10:53:54.439Z,1120.00
2022-10-01T10:54:54.433Z,1632.00
2022-10-01T10:55:54.443Z,1284.00
2022-10-01T10:56:54.436Z,1300.00
2022-10-01T10:57:57.502Z,1228.00
2022-10-01T10:58:54.381Z,1004.00
2022-10-01T10:59:54.384Z,1108.00
2022-10-01T11:00:54.382Z,812.00
2022-10-01T11:01:54.510Z,1324.00
2022-10-01T11:02:54.340Z,1432.00
2022-10-01T11:03:54.336Z,1964.00
2022-10-01T11:04:54.318Z,1780.00
2022-10-01T11:05:54.326Z,2016.00
2022-10-01T11:06:54.325Z,2108.00
2022-10-01T11:07:54.292Z,2588.00
2022-10-01T11:08:54.271Z,2652.00
2022-10-01T11:09:54.267Z,2496.00
2022-10-01T11:10:54.274Z,3508.00
2022-10-01T11:11:54.247Z,3448.00
2022-10-01T11:12:54.259Z,4312.00
2022-10-01T11:13:54.228Z,3292.00
2022-10-01T11:14:54.248Z,3448.00
2022-10-01T11:15:54.251Z,1756.00
2022-10-01T11:16:54.199Z,2048.00
2022-10-01T11:17:54.198Z,1596.00
2022-10-01T11:18:54.212Z,2500.00
2022-10-01T11:19:54.190Z,1576.00
2022-10-01T11:20:54.158Z,2740.00
2022-10-01T11:21:54.138Z,2436.00
2022-10-01T11:22:54.158Z,1604.00
2022-10-01T11:23:54.115Z,2092.00
2022-10-01T11:24:54.101Z,1468.00
2022-10-01T11:25:54.099Z,1828.00
2022-10-01T11:26:54.084Z,1620.00
2022-10-01T11:27:54.149Z,2188.00
2022-10-01T11:28:54.096Z,2780.00
2022-10-01T11:29:54.055Z,2832.00
2022-10-01T11:30:54.200Z,2968.00
2022-10-01T11:31:54.066Z,3016.00
2022-10-01T11:32:54.063Z,2712.00
2022-10-01T11:33:54.006Z,1716.00
2022-10-01T11:34:53.996Z,1964.00
2022-10-01T11:35:53.983Z,2084.00
2022-10-01T11:36:55.577Z,1556.00
2022-10-01T11:37:53.959Z,1716.00
2022-10-01T11:38:53.979Z,1716.00
2022-10-01T11:39:53.980Z,1496.00
2022-10-01T11:40:53.922Z,2180.00
2022-10-01T11:41:53.923Z,1556.00
2022-10-01T11:42:53.918Z,1240.00
2022-10-01T11:43:53.933Z,2012.00
2022-10-01T11:44:58.579Z,1712.00
2022-10-01T11:45:54.873Z,1068.00
2022-10-01T11:46:53.972Z,656.00
2022-10-01T11:47:53.875Z,584.00
2022-10-01T11:48:53.844Z,840.00
2022-10-01T11:49:53.870Z,1480.00
2022-10-01T11:50:53.832Z,1704.00
2022-10-01T11:51:53.808Z,1076.00
2022-10-01T11:52:53.829Z,616.00
2022-10-01T11:53:53.798Z,664.00
2022-10-01T11:54:56.219Z,832.00
2022-10-01T11:55:53.818Z,688.00
2022-10-01T11:56:53.767Z,700.00
2022-10-01T11:57:53.743Z,896.00
2022-10-01T11:58:53.738Z,856.00
2022-10-01T11:59:53.747Z,920.00
2022-10-01T12:00:53.717Z,820.00
2022-10-01T12:01:53.762Z,836.00
2022-10-01T12:02:53.697Z,1132.00
2022-10-01T12:03:53.702Z,856.00
2022-10-01T12:04:53.708Z,848.00
2022-10-01T12:05:53.712Z,1004.00
2022-10-01T12:06:53.648Z,1464.00
2022-10-01T12:07:53.646Z,1360.00
2022-10-01T12:08:53.675Z,1156.00
2022-10-01T12:09:53.620Z,1044.00
2022-10-01T12:10:53.611Z,1032.00
2022-10-01T12:11:53.592Z,1056.00
2022-10-01T12:12:53.582Z,1004.00
2022-10-01T12:13:53.612Z,912.00
2022-10-01T12:14:54.314Z,1184.00
2022-10-01T12:15:53.580Z,968.00
2022-10-01T12:16:53.576Z,852.00
2022-10-01T12:17:53.569Z,940.00
2022-10-01T12:18:53.530Z,804.00
2022-10-01T12:19:53.527Z,968.00
2022-10-01T12:20:53.508Z,832.00
2022-10-01T12:21:53.509Z,864.00
2022-10-01T12:22:53.544Z,1028.00
2022-10-01T12:23:53.486Z,1200.00
2022-10-01T12:24:53.482Z,1316.00
2022-10-01T12:25:53.486Z,1560.00
2022-10-01T12:26:53.452Z,1320.00
2022-10-01T12:27:53.529Z,1140.00
2022-10-01T12:28:57.950Z,1028.00
2022-10-01T12:29:53.443Z,888.00
2022-10-01T12:30:53.398Z,1112.00
2022-10-01T12:31:53.391Z,844.00
2022-10-01T12:32:53.386Z,920.00
2022-10-01T12:33:53.366Z,1072.00
2022-10-01T12:34:54.515Z,1256.00
2022-10-01T12:35:53.363Z,1132.00